sensor_id;sensor_type;location;lat;lon;timestamp;P1;durP1;ratioP1;P2;durP2;ratioP2
51824;SDS011;37879;52.986;6.282;2022-10-31T00:02:03;27.42;;;13.23;;
51824;SDS011;37879;52.986;6.282;2022-10-31T00:04:29;26.63;;;13.65;;
51824;SDS011;37879;52.986;6.282;2022-10-31T00:06:55;25.13;;;13.38;;
51824;SDS011;37879;52.986;6.282;2022-10-31T00:09:20;25.45;;;13.32;;
51824;SDS011;37879;52.986;6.282;2022-10-31T00:11:46;22.50;;;11.13;;
51824;SDS011;37879;52.986;6.282;2022-10-31T00:14:12;25.27;;;11.10;;
51824;SDS011;37879;52.986;6.282;2022-10-31T00:16:37;22.15;;;11.27;;
51824;SDS011;37879;52.986;6.282;2022-10-31T00:19:05;20.77;;;11.15;;
51824;SDS011;37879;52.986;6.282;2022-10-31T00:21:32;23.27;;;11.93;;
51824;SDS011;37879;52.986;6.282;2022-10-31T00:23:59;29.77;;;14.13;;
51824;SDS011;37879;52.986;6.282;2022-10-31T00:26:28;24.58;;;11.65;;
51824;SDS011;37879;52.986;6.282;2022-10-31T00:28:56;27.13;;;12.20;;
51824;SDS011;37879;52.986;6.282;2022-10-31T00:31:22;21.00;;;11.82;;
51824;SDS011;37879;52.986;6.282;2022-10-31T00:33:48;26.95;;;12.30;;
51824;SDS011;37879;52.986;6.282;2022-10-31T00:36:15;21.63;;;10.90;;
51824;SDS011;37879;52.986;6.282;2022-10-31T00:38:42;21.48;;;10.27;;
51824;SDS011;37879;52.986;6.282;2022-10-31T00:41:09;20.08;;;10.60;;
51824;SDS011;37879;52.986;6.282;2022-10-31T00:43:36;19.92;;;10.73;;
51824;SDS011;37879;52.986;6.282;2022-10-31T00:46:01;24.15;;;13.27;;
51824;SDS011;37879;52.986;6.282;2022-10-31T00:48:28;22.67;;;12.20;;
51824;SDS011;37879;52.986;6.282;2022-10-31T00:50:54;27.08;;;12.32;;
51824;SDS011;37879;52.986;6.282;2022-10-31T00:53:20;21.40;;;12.13;;
51824;SDS011;37879;52.986;6.282;2022-10-31T00:55:45;25.25;;;12.95;;
51824;SDS011;37879;52.986;6.282;2022-10-31T00:58:11;21.13;;;11.50;;
51824;SDS011;37879;52.986;6.282;2022-10-31T01:00:37;20.42;;;9.75;;
51824;SDS011;37879;52.986;6.282;2022-10-31T01:03:03;21.52;;;11.15;;
51824;SDS011;37879;52.986;6.282;2022-10-31T01:05:29;28.90;;;11.73;;
51824;SDS011;37879;52.986;6.282;2022-10-31T01:07:54;22.83;;;10.95;;
51824;SDS011;37879;52.986;6.282;2022-10-31T01:10:20;23.25;;;13.02;;
51824;SDS011;37879;52.986;6.282;2022-10-31T01:12:47;22.73;;;11.95;;
51824;SDS011;37879;52.986;6.282;2022-10-31T01:15:14;22.73;;;12.02;;
51824;SDS011;37879;52.986;6.282;2022-10-31T01:17:42;22.48;;;12.15;;
51824;SDS011;37879;52.986;6.282;2022-10-31T01:20:08;22.67;;;12.27;;
51824;SDS011;37879;52.986;6.282;2022-10-31T01:22:35;25.30;;;12.23;;
51824;SDS011;37879;52.986;6.282;2022-10-31T01:25:01;20.02;;;12.07;;
51824;SDS011;37879;52.986;6.282;2022-10-31T01:27:27;17.60;;;10.65;;
51824;SDS011;37879;52.986;6.282;2022-10-31T01:29:53;20.52;;;11.13;;
51824;SDS011;37879;52.986;6.282;2022-10-31T01:32:18;19.42;;;11.20;;
51824;SDS011;37879;52.986;6.282;2022-10-31T01:34:44;19.52;;;13.02;;
51824;SDS011;37879;52.986;6.282;2022-10-31T01:37:10;24.20;;;12.48;;
51824;SDS011;37879;52.986;6.282;2022-10-31T01:39:35;26.90;;;13.13;;
51824;SDS011;37879;52.986;6.282;2022-10-31T01:42:01;22.70;;;12.52;;
51824;SDS011;37879;52.986;6.282;2022-10-31T01:52:17;27.63;;;12.27;;
51824;SDS011;37879;52.986;6.282;2022-10-31T01:54:51;21.77;;;11.65;;
51824;SDS011;37879;52.986;6.282;2022-10-31T01:57:28;18.05;;;11.13;;
51824;SDS011;37879;52.986;6.282;2022-10-31T01:59:57;23.42;;;12.80;;
51824;SDS011;37879;52.986;6.282;2022-10-31T02:02:27;24.95;;;12.20;;
51824;SDS011;37879;52.986;6.282;2022-10-31T02:04:54;21.45;;;12.45;;
51824;SDS011;37879;52.986;6.282;2022-10-31T02:07:23;23.23;;;13.45;;
51824;SDS011;37879;52.986;6.282;2022-10-31T02:09:52;22.02;;;12.57;;
51824;SDS011;37879;52.986;6.282;2022-10-31T02:12:20;26.45;;;13.73;;
51824;SDS011;37879;52.986;6.282;2022-10-31T02:14:46;28.35;;;14.27;;
51824;SDS011;37879;52.986;6.282;2022-10-31T02:17:12;17.00;;;10.32;;
51824;SDS011;37879;52.986;6.282;2022-10-31T02:22:19;24.67;;;12.23;;
51824;SDS011;37879;52.986;6.282;2022-10-31T02:25:14;18.73;;;10.60;;
51824;SDS011;37879;52.986;6.282;2022-10-31T02:31:00;23.75;;;12.80;;
51824;SDS011;37879;52.986;6.282;2022-10-31T02:33:41;21.23;;;11.73;;
51824;SDS011;37879;52.986;6.282;2022-10-31T02:36:43;25.20;;;13.43;;
51824;SDS011;37879;52.986;6.282;2022-10-31T02:39:37;24.45;;;12.73;;
51824;SDS011;37879;52.986;6.282;2022-10-31T02:42:20;23.10;;;13.23;;
51824;SDS011;37879;52.986;6.282;2022-10-31T02:45:19;21.90;;;11.50;;
51824;SDS011;37879;52.986;6.282;2022-10-31T02:47:50;26.42;;;13.93;;
51824;SDS011;37879;52.986;6.282;2022-10-31T02:50:20;23.77;;;13.32;;
51824;SDS011;37879;52.986;6.282;2022-10-31T02:52:51;22.00;;;11.93;;
51824;SDS011;37879;52.986;6.282;2022-10-31T02:57:56;26.90;;;13.50;;
51824;SDS011;37879;52.986;6.282;2022-10-31T03:00:25;25.00;;;15.20;;
51824;SDS011;37879;52.986;6.282;2022-10-31T03:03:02;24.92;;;14.80;;
51824;SDS011;37879;52.986;6.282;2022-10-31T03:05:40;23.67;;;13.82;;
51824;SDS011;37879;52.986;6.282;2022-10-31T03:10:47;26.15;;;14.15;;
51824;SDS011;37879;52.986;6.282;2022-10-31T03:13:24;20.27;;;11.60;;
51824;SDS011;37879;52.986;6.282;2022-10-31T03:16:10;24.60;;;12.77;;
51824;SDS011;37879;52.986;6.282;2022-10-31T03:18:44;21.13;;;12.55;;
51824;SDS011;37879;52.986;6.282;2022-10-31T03:21:25;20.52;;;11.63;;
51824;SDS011;37879;52.986;6.282;2022-10-31T03:23:58;20.30;;;12.80;;
51824;SDS011;37879;52.986;6.282;2022-10-31T03:26:26;20.58;;;12.68;;
51824;SDS011;37879;52.986;6.282;2022-10-31T03:31:55;22.30;;;12.20;;
51824;SDS011;37879;52.986;6.282;2022-10-31T03:34:25;22.20;;;13.75;;
51824;SDS011;37879;52.986;6.282;2022-10-31T03:36:55;20.60;;;11.73;;
51824;SDS011;37879;52.986;6.282;2022-10-31T03:39:24;22.90;;;13.10;;
51824;SDS011;37879;52.986;6.282;2022-10-31T03:41:56;24.77;;;14.45;;
51824;SDS011;37879;52.986;6.282;2022-10-31T03:44:32;19.38;;;11.40;;
51824;SDS011;37879;52.986;6.282;2022-10-31T03:46:59;19.23;;;10.90;;
51824;SDS011;37879;52.986;6.282;2022-10-31T03:49:28;20.25;;;11.02;;
51824;SDS011;37879;52.986;6.282;2022-10-31T03:52:10;20.05;;;11.82;;
51824;SDS011;37879;52.986;6.282;2022-10-31T03:54:45;23.83;;;13.60;;
51824;SDS011;37879;52.986;6.282;2022-10-31T03:57:17;23.60;;;14.10;;
51824;SDS011;37879;52.986;6.282;2022-10-31T03:59:47;32.40;;;13.73;;
51824;SDS011;37879;52.986;6.282;2022-10-31T04:02:19;26.47;;;14.07;;
51824;SDS011;37879;52.986;6.282;2022-10-31T04:04:47;19.20;;;10.57;;
51824;SDS011;37879;52.986;6.282;2022-10-31T04:07:14;22.95;;;12.13;;
51824;SDS011;37879;52.986;6.282;2022-10-31T04:09:41;20.10;;;11.27;;
51824;SDS011;37879;52.986;6.282;2022-10-31T04:12:10;24.38;;;12.48;;
51824;SDS011;37879;52.986;6.282;2022-10-31T04:14:40;18.70;;;11.65;;
51824;SDS011;37879;52.986;6.282;2022-10-31T04:17:09;18.77;;;11.93;;
51824;SDS011;37879;52.986;6.282;2022-10-31T04:19:38;17.40;;;10.75;;
51824;SDS011;37879;52.986;6.282;2022-10-31T04:22:04;17.35;;;10.52;;
51824;SDS011;37879;52.986;6.282;2022-10-31T04:24:30;14.00;;;9.98;;
51824;SDS011;37879;52.986;6.282;2022-10-31T04:26:55;28.08;;;14.77;;
51824;SDS011;37879;52.986;6.282;2022-10-31T04:29:21;21.20;;;12.85;;
51824;SDS011;37879;52.986;6.282;2022-10-31T04:31:47;22.70;;;13.95;;
51824;SDS011;37879;52.986;6.282;2022-10-31T04:34:12;16.50;;;10.45;;
51824;SDS011;37879;52.986;6.282;2022-10-31T04:36:38;21.20;;;12.18;;
51824;SDS011;37879;52.986;6.282;2022-10-31T04:39:04;19.13;;;11.13;;
51824;SDS011;37879;52.986;6.282;2022-10-31T04:41:29;22.75;;;12.13;;
51824;SDS011;37879;52.986;6.282;2022-10-31T04:43:55;28.70;;;13.80;;
51824;SDS011;37879;52.986;6.282;2022-10-31T04:46:21;23.20;;;12.50;;
51824;SDS011;37879;52.986;6.282;2022-10-31T04:48:46;19.90;;;11.80;;
51824;SDS011;37879;52.986;6.282;2022-10-31T04:51:13;24.50;;;12.48;;
51824;SDS011;37879;52.986;6.282;2022-10-31T04:53:39;25.33;;;12.88;;
51824;SDS011;37879;52.986;6.282;2022-10-31T04:56:04;19.25;;;11.73;;
51824;SDS011;37879;52.986;6.282;2022-10-31T04:58:30;20.98;;;12.57;;
51824;SDS011;37879;52.986;6.282;2022-10-31T05:00:56;21.92;;;12.15;;
51824;SDS011;37879;52.986;6.282;2022-10-31T05:03:22;14.45;;;9.23;;
51824;SDS011;37879;52.986;6.282;2022-10-31T05:05:47;16.58;;;11.13;;
51824;SDS011;37879;52.986;6.282;2022-10-31T05:08:14;17.52;;;9.85;;
51824;SDS011;37879;52.986;6.282;2022-10-31T05:10:39;17.05;;;11.02;;
51824;SDS011;37879;52.986;6.282;2022-10-31T05:13:05;19.48;;;11.60;;
51824;SDS011;37879;52.986;6.282;2022-10-31T05:15:31;17.50;;;12.23;;
51824;SDS011;37879;52.986;6.282;2022-10-31T05:17:57;17.80;;;9.63;;
51824;SDS011;37879;52.986;6.282;2022-10-31T05:20:24;19.33;;;10.85;;
51824;SDS011;37879;52.986;6.282;2022-10-31T05:22:54;15.90;;;10.40;;
51824;SDS011;37879;52.986;6.282;2022-10-31T05:25:21;16.50;;;11.43;;
51824;SDS011;37879;52.986;6.282;2022-10-31T05:27:49;16.13;;;9.82;;
51824;SDS011;37879;52.986;6.282;2022-10-31T05:30:17;23.75;;;12.82;;
51824;SDS011;37879;52.986;6.282;2022-10-31T05:32:51;25.05;;;12.73;;
51824;SDS011;37879;52.986;6.282;2022-10-31T05:35:19;21.50;;;11.50;;
51824;SDS011;37879;52.986;6.282;2022-10-31T05:37:49;18.60;;;11.52;;
51824;SDS011;37879;52.986;6.282;2022-10-31T05:40:15;20.85;;;11.32;;
51824;SDS011;37879;52.986;6.282;2022-10-31T05:42:42;17.35;;;10.80;;
51824;SDS011;37879;52.986;6.282;2022-10-31T05:45:10;20.02;;;10.80;;
51824;SDS011;37879;52.986;6.282;2022-10-31T05:47:37;21.17;;;11.98;;
51824;SDS011;37879;52.986;6.282;2022-10-31T05:50:03;19.27;;;11.43;;
51824;SDS011;37879;52.986;6.282;2022-10-31T05:52:29;27.40;;;14.57;;
51824;SDS011;37879;52.986;6.282;2022-10-31T05:54:58;15.85;;;10.13;;
51824;SDS011;37879;52.986;6.282;2022-10-31T05:57:24;22.55;;;13.60;;
51824;SDS011;37879;52.986;6.282;2022-10-31T05:59:49;24.23;;;12.05;;
51824;SDS011;37879;52.986;6.282;2022-10-31T06:02:18;21.20;;;12.05;;
51824;SDS011;37879;52.986;6.282;2022-10-31T06:04:45;25.48;;;15.32;;
51824;SDS011;37879;52.986;6.282;2022-10-31T06:07:10;24.25;;;13.75;;
51824;SDS011;37879;52.986;6.282;2022-10-31T06:09:36;23.88;;;12.65;;
51824;SDS011;37879;52.986;6.282;2022-10-31T06:12:02;24.75;;;13.65;;
51824;SDS011;37879;52.986;6.282;2022-10-31T06:14:28;25.27;;;13.85;;
51824;SDS011;37879;52.986;6.282;2022-10-31T06:16:54;26.40;;;14.70;;
51824;SDS011;37879;52.986;6.282;2022-10-31T06:19:20;25.75;;;14.23;;
51824;SDS011;37879;52.986;6.282;2022-10-31T06:21:46;28.55;;;15.15;;
51824;SDS011;37879;52.986;6.282;2022-10-31T06:24:12;28.25;;;15.00;;
51824;SDS011;37879;52.986;6.282;2022-10-31T06:26:37;23.25;;;13.52;;
51824;SDS011;37879;52.986;6.282;2022-10-31T06:29:03;23.05;;;12.20;;
51824;SDS011;37879;52.986;6.282;2022-10-31T06:31:29;31.00;;;15.25;;
51824;SDS011;37879;52.986;6.282;2022-10-31T06:33:55;22.15;;;13.07;;
51824;SDS011;37879;52.986;6.282;2022-10-31T06:36:20;29.17;;;16.13;;
51824;SDS011;37879;52.986;6.282;2022-10-31T06:38:46;29.10;;;15.90;;
51824;SDS011;37879;52.986;6.282;2022-10-31T06:41:12;23.17;;;12.55;;
51824;SDS011;37879;52.986;6.282;2022-10-31T06:43:37;33.58;;;17.65;;
51824;SDS011;37879;52.986;6.282;2022-10-31T06:46:03;28.08;;;15.50;;
51824;SDS011;37879;52.986;6.282;2022-10-31T06:48:30;25.30;;;13.35;;
51824;SDS011;37879;52.986;6.282;2022-10-31T06:50:59;23.23;;;12.68;;
51824;SDS011;37879;52.986;6.282;2022-10-31T06:53:26;25.73;;;13.95;;
51824;SDS011;37879;52.986;6.282;2022-10-31T06:55:57;27.85;;;15.30;;
51824;SDS011;37879;52.986;6.282;2022-10-31T06:58:23;28.95;;;16.42;;
51824;SDS011;37879;52.986;6.282;2022-10-31T07:00:49;29.80;;;16.80;;
51824;SDS011;37879;52.986;6.282;2022-10-31T07:03:15;37.22;;;17.08;;
51824;SDS011;37879;52.986;6.282;2022-10-31T07:05:41;19.63;;;11.80;;
51824;SDS011;37879;52.986;6.282;2022-10-31T07:08:08;24.90;;;15.10;;
51824;SDS011;37879;52.986;6.282;2022-10-31T07:10:36;23.33;;;12.73;;
51824;SDS011;37879;52.986;6.282;2022-10-31T07:13:04;28.48;;;14.90;;
51824;SDS011;37879;52.986;6.282;2022-10-31T07:15:34;36.60;;;17.77;;
51824;SDS011;37879;52.986;6.282;2022-10-31T07:18:02;25.83;;;13.70;;
51824;SDS011;37879;52.986;6.282;2022-10-31T07:20:30;28.45;;;13.60;;
51824;SDS011;37879;52.986;6.282;2022-10-31T07:22:56;22.38;;;11.93;;
51824;SDS011;37879;52.986;6.282;2022-10-31T07:25:23;25.30;;;14.32;;
51824;SDS011;37879;52.986;6.282;2022-10-31T07:27:49;25.58;;;14.98;;
51824;SDS011;37879;52.986;6.282;2022-10-31T07:30:15;22.65;;;13.15;;
51824;SDS011;37879;52.986;6.282;2022-10-31T07:32:47;22.98;;;14.05;;
51824;SDS011;37879;52.986;6.282;2022-10-31T07:35:15;27.90;;;13.00;;
51824;SDS011;37879;52.986;6.282;2022-10-31T07:37:51;23.85;;;12.60;;
51824;SDS011;37879;52.986;6.282;2022-10-31T07:40:17;22.83;;;13.30;;
51824;SDS011;37879;52.986;6.282;2022-10-31T07:42:45;30.35;;;14.20;;
51824;SDS011;37879;52.986;6.282;2022-10-31T07:45:16;25.13;;;13.80;;
51824;SDS011;37879;52.986;6.282;2022-10-31T07:47:47;26.10;;;14.27;;
51824;SDS011;37879;52.986;6.282;2022-10-31T07:50:18;24.42;;;13.90;;
51824;SDS011;37879;52.986;6.282;2022-10-31T07:52:46;24.90;;;14.00;;
51824;SDS011;37879;52.986;6.282;2022-10-31T07:55:11;26.88;;;14.07;;
51824;SDS011;37879;52.986;6.282;2022-10-31T07:57:38;29.30;;;16.60;;
51824;SDS011;37879;52.986;6.282;2022-10-31T08:00:07;29.98;;;14.85;;
51824;SDS011;37879;52.986;6.282;2022-10-31T08:02:34;24.08;;;14.30;;
51824;SDS011;37879;52.986;6.282;2022-10-31T08:05:01;34.60;;;17.20;;
51824;SDS011;37879;52.986;6.282;2022-10-31T08:07:29;25.17;;;14.93;;
51824;SDS011;37879;52.986;6.282;2022-10-31T08:10:00;30.00;;;15.48;;
51824;SDS011;37879;52.986;6.282;2022-10-31T08:12:26;24.42;;;14.13;;
51824;SDS011;37879;52.986;6.282;2022-10-31T08:14:52;25.08;;;15.90;;
51824;SDS011;37879;52.986;6.282;2022-10-31T08:17:17;24.30;;;14.50;;
51824;SDS011;37879;52.986;6.282;2022-10-31T08:19:43;22.55;;;12.82;;
51824;SDS011;37879;52.986;6.282;2022-10-31T08:22:08;23.73;;;14.23;;
51824;SDS011;37879;52.986;6.282;2022-10-31T08:24:34;22.35;;;12.93;;
51824;SDS011;37879;52.986;6.282;2022-10-31T08:27:00;19.75;;;11.23;;
51824;SDS011;37879;52.986;6.282;2022-10-31T08:29:25;24.38;;;14.52;;
51824;SDS011;37879;52.986;6.282;2022-10-31T08:31:51;26.15;;;14.07;;
51824;SDS011;37879;52.986;6.282;2022-10-31T08:34:17;17.60;;;11.77;;
51824;SDS011;37879;52.986;6.282;2022-10-31T08:36:42;26.55;;;14.93;;
51824;SDS011;37879;52.986;6.282;2022-10-31T08:39:11;22.48;;;13.10;;
51824;SDS011;37879;52.986;6.282;2022-10-31T08:41:36;25.25;;;14.57;;
51824;SDS011;37879;52.986;6.282;2022-10-31T08:44:02;25.63;;;13.70;;
51824;SDS011;37879;52.986;6.282;2022-10-31T08:46:28;28.80;;;16.05;;
51824;SDS011;37879;52.986;6.282;2022-10-31T08:48:53;21.05;;;12.57;;
51824;SDS011;37879;52.986;6.282;2022-10-31T08:51:19;25.85;;;13.55;;
51824;SDS011;37879;52.986;6.282;2022-10-31T08:53:45;21.45;;;13.13;;
51824;SDS011;37879;52.986;6.282;2022-10-31T08:56:10;22.65;;;14.13;;
51824;SDS011;37879;52.986;6.282;2022-10-31T08:58:36;22.42;;;13.63;;
51824;SDS011;37879;52.986;6.282;2022-10-31T09:01:02;20.40;;;12.23;;
51824;SDS011;37879;52.986;6.282;2022-10-31T09:03:29;24.65;;;14.10;;
51824;SDS011;37879;52.986;6.282;2022-10-31T09:05:56;21.45;;;13.88;;
51824;SDS011;37879;52.986;6.282;2022-10-31T09:08:23;23.25;;;13.18;;
51824;SDS011;37879;52.986;6.282;2022-10-31T09:10:50;22.98;;;13.38;;
51824;SDS011;37879;52.986;6.282;2022-10-31T09:13:16;22.33;;;13.60;;
51824;SDS011;37879;52.986;6.282;2022-10-31T09:15:44;24.63;;;12.85;;
51824;SDS011;37879;52.986;6.282;2022-10-31T09:18:13;19.13;;;12.07;;
51824;SDS011;37879;52.986;6.282;2022-10-31T09:20:40;17.52;;;10.68;;
51824;SDS011;37879;52.986;6.282;2022-10-31T09:23:09;17.15;;;11.55;;
51824;SDS011;37879;52.986;6.282;2022-10-31T09:25:36;21.15;;;10.73;;
51824;SDS011;37879;52.986;6.282;2022-10-31T09:28:03;19.88;;;11.00;;
51824;SDS011;37879;52.986;6.282;2022-10-31T09:30:31;18.63;;;11.82;;
51824;SDS011;37879;52.986;6.282;2022-10-31T09:32:59;19.00;;;11.98;;
51824;SDS011;37879;52.986;6.282;2022-10-31T09:35:26;21.02;;;12.57;;
51824;SDS011;37879;52.986;6.282;2022-10-31T09:40:36;21.83;;;12.32;;
51824;SDS011;37879;52.986;6.282;2022-10-31T09:46:15;21.83;;;13.70;;
51824;SDS011;37879;52.986;6.282;2022-10-31T09:51:51;24.13;;;13.32;;
51824;SDS011;37879;52.986;6.282;2022-10-31T09:54:28;18.25;;;11.15;;
51824;SDS011;37879;52.986;6.282;2022-10-31T09:57:10;16.15;;;10.65;;
51824;SDS011;37879;52.986;6.282;2022-10-31T09:59:40;21.30;;;12.60;;
51824;SDS011;37879;52.986;6.282;2022-10-31T10:02:19;17.33;;;10.65;;
51824;SDS011;37879;52.986;6.282;2022-10-31T10:04:54;15.82;;;11.25;;
51824;SDS011;37879;52.986;6.282;2022-10-31T10:10:18;18.35;;;11.77;;
51824;SDS011;37879;52.986;6.282;2022-10-31T10:15:44;20.00;;;11.13;;
51824;SDS011;37879;52.986;6.282;2022-10-31T10:18:41;19.25;;;12.02;;
51824;SDS011;37879;52.986;6.282;2022-10-31T10:26:36;17.08;;;11.80;;
51824;SDS011;37879;52.986;6.282;2022-10-31T10:31:36;20.67;;;12.70;;
51824;SDS011;37879;52.986;6.282;2022-10-31T10:34:22;19.70;;;12.38;;
51824;SDS011;37879;52.986;6.282;2022-10-31T10:37:04;22.23;;;11.23;;
51824;SDS011;37879;52.986;6.282;2022-10-31T10:39:40;19.20;;;13.20;;
51824;SDS011;37879;52.986;6.282;2022-10-31T10:42:13;21.33;;;12.80;;
51824;SDS011;37879;52.986;6.282;2022-10-31T10:44:59;22.42;;;12.68;;
51824;SDS011;37879;52.986;6.282;2022-10-31T10:47:53;18.60;;;13.38;;
51824;SDS011;37879;52.986;6.282;2022-10-31T10:50:34;19.92;;;12.02;;
51824;SDS011;37879;52.986;6.282;2022-10-31T10:53:06;17.95;;;12.25;;
51824;SDS011;37879;52.986;6.282;2022-10-31T10:58:27;19.30;;;12.35;;
51824;SDS011;37879;52.986;6.282;2022-10-31T11:00:53;16.90;;;11.82;;
51824;SDS011;37879;52.986;6.282;2022-10-31T11:03:20;17.30;;;11.25;;
51824;SDS011;37879;52.986;6.282;2022-10-31T11:05:53;19.40;;;11.00;;
51824;SDS011;37879;52.986;6.282;2022-10-31T11:08:31;18.02;;;11.32;;
51824;SDS011;37879;52.986;6.282;2022-10-31T11:11:22;17.25;;;11.55;;
51824;SDS011;37879;52.986;6.282;2022-10-31T11:14:14;20.52;;;13.02;;
51824;SDS011;37879;52.986;6.282;2022-10-31T11:16:41;15.90;;;10.55;;
51824;SDS011;37879;52.986;6.282;2022-10-31T11:19:13;19.73;;;12.57;;
51824;SDS011;37879;52.986;6.282;2022-10-31T11:21:41;18.15;;;11.43;;
51824;SDS011;37879;52.986;6.282;2022-10-31T11:26:36;15.45;;;11.20;;
51824;SDS011;37879;52.986;6.282;2022-10-31T11:29:10;21.20;;;13.45;;
51824;SDS011;37879;52.986;6.282;2022-10-31T11:31:40;21.45;;;11.82;;
51824;SDS011;37879;52.986;6.282;2022-10-31T11:37:15;18.23;;;11.82;;
51824;SDS011;37879;52.986;6.282;2022-10-31T11:39:44;20.20;;;13.45;;
51824;SDS011;37879;52.986;6.282;2022-10-31T11:42:19;17.88;;;12.10;;
51824;SDS011;37879;52.986;6.282;2022-10-31T11:44:47;21.23;;;12.13;;
51824;SDS011;37879;52.986;6.282;2022-10-31T11:47:15;16.60;;;10.98;;
51824;SDS011;37879;52.986;6.282;2022-10-31T11:49:43;18.77;;;11.48;;
51824;SDS011;37879;52.986;6.282;2022-10-31T11:59:52;14.00;;;9.45;;
51824;SDS011;37879;52.986;6.282;2022-10-31T12:02:19;14.05;;;9.48;;
51824;SDS011;37879;52.986;6.282;2022-10-31T12:04:47;14.52;;;9.90;;
51824;SDS011;37879;52.986;6.282;2022-10-31T12:07:36;15.35;;;10.73;;
51824;SDS011;37879;52.986;6.282;2022-10-31T12:10:04;16.30;;;9.18;;
51824;SDS011;37879;52.986;6.282;2022-10-31T12:20:53;13.55;;;8.50;;
51824;SDS011;37879;52.986;6.282;2022-10-31T12:23:32;12.52;;;8.23;;
51824;SDS011;37879;52.986;6.282;2022-10-31T12:32:29;12.15;;;7.55;;
51824;SDS011;37879;52.986;6.282;2022-10-31T12:46:21;12.95;;;7.20;;
51824;SDS011;37879;52.986;6.282;2022-10-31T12:49:20;13.32;;;6.25;;
51824;SDS011;37879;52.986;6.282;2022-10-31T12:52:37;12.43;;;5.65;;
51824;SDS011;37879;52.986;6.282;2022-10-31T13:00:49;11.85;;;5.32;;
51824;SDS011;37879;52.986;6.282;2022-10-31T13:06:35;8.23;;;4.38;;
51824;SDS011;37879;52.986;6.282;2022-10-31T13:09:10;10.10;;;5.13;;
51824;SDS011;37879;52.986;6.282;2022-10-31T13:11:45;6.57;;;4.38;;
51824;SDS011;37879;52.986;6.282;2022-10-31T13:16:56;9.77;;;4.53;;
51824;SDS011;37879;52.986;6.282;2022-10-31T13:19:29;9.25;;;4.78;;
51824;SDS011;37879;52.986;6.282;2022-10-31T13:22:18;15.93;;;4.82;;
51824;SDS011;37879;52.986;6.282;2022-10-31T13:25:04;9.63;;;4.88;;
51824;SDS011;37879;52.986;6.282;2022-10-31T13:27:55;11.07;;;4.97;;
51824;SDS011;37879;52.986;6.282;2022-10-31T13:30:25;10.40;;;5.18;;
51824;SDS011;37879;52.986;6.282;2022-10-31T13:35:36;10.80;;;4.95;;
51824;SDS011;37879;52.986;6.282;2022-10-31T13:40:56;11.15;;;5.03;;
51824;SDS011;37879;52.986;6.282;2022-10-31T13:43:28;8.02;;;4.68;;
51824;SDS011;37879;52.986;6.282;2022-10-31T13:45:59;11.23;;;4.68;;
51824;SDS011;37879;52.986;6.282;2022-10-31T13:56:30;9.23;;;3.75;;
51824;SDS011;37879;52.986;6.282;2022-10-31T13:58:59;9.68;;;3.35;;
51824;SDS011;37879;52.986;6.282;2022-10-31T14:01:35;7.30;;;3.22;;
51824;SDS011;37879;52.986;6.282;2022-10-31T14:06:41;6.63;;;3.22;;
51824;SDS011;37879;52.986;6.282;2022-10-31T14:09:22;4.82;;;2.72;;
51824;SDS011;37879;52.986;6.282;2022-10-31T14:12:01;6.20;;;2.83;;
51824;SDS011;37879;52.986;6.282;2022-10-31T14:14:43;7.65;;;3.30;;
51824;SDS011;37879;52.986;6.282;2022-10-31T14:17:23;8.63;;;3.08;;
51824;SDS011;37879;52.986;6.282;2022-10-31T14:19:59;9.88;;;3.88;;
51824;SDS011;37879;52.986;6.282;2022-10-31T14:22:30;7.65;;;3.90;;
51824;SDS011;37879;52.986;6.282;2022-10-31T14:24:57;8.40;;;3.15;;
51824;SDS011;37879;52.986;6.282;2022-10-31T14:29:51;6.93;;;2.83;;
51824;SDS011;37879;52.986;6.282;2022-10-31T14:32:22;8.75;;;3.13;;
51824;SDS011;37879;52.986;6.282;2022-10-31T14:45:21;10.70;;;3.63;;
51824;SDS011;37879;52.986;6.282;2022-10-31T14:48:02;6.47;;;2.35;;
51824;SDS011;37879;52.986;6.282;2022-10-31T14:53:31;8.00;;;2.80;;
51824;SDS011;37879;52.986;6.282;2022-10-31T14:56:00;9.93;;;3.17;;
51824;SDS011;37879;52.986;6.282;2022-10-31T15:01:03;9.25;;;3.28;;
51824;SDS011;37879;52.986;6.282;2022-10-31T15:03:33;7.82;;;3.13;;
51824;SDS011;37879;52.986;6.282;2022-10-31T15:06:19;8.98;;;4.03;;
51824;SDS011;37879;52.986;6.282;2022-10-31T15:08:47;7.13;;;4.28;;
51824;SDS011;37879;52.986;6.282;2022-10-31T15:11:25;10.43;;;5.20;;
51824;SDS011;37879;52.986;6.282;2022-10-31T15:13:53;8.10;;;4.43;;
51824;SDS011;37879;52.986;6.282;2022-10-31T15:16:31;13.85;;;4.68;;
51824;SDS011;37879;52.986;6.282;2022-10-31T15:19:10;9.80;;;4.05;;
51824;SDS011;37879;52.986;6.282;2022-10-31T15:22:25;11.23;;;4.10;;
51824;SDS011;37879;52.986;6.282;2022-10-31T15:28:41;12.40;;;5.43;;
51824;SDS011;37879;52.986;6.282;2022-10-31T15:31:48;9.25;;;5.28;;
51824;SDS011;37879;52.986;6.282;2022-10-31T15:34:16;11.48;;;5.57;;
51824;SDS011;37879;52.986;6.282;2022-10-31T15:36:49;7.57;;;4.43;;
51824;SDS011;37879;52.986;6.282;2022-10-31T15:39:15;10.30;;;6.07;;
51824;SDS011;37879;52.986;6.282;2022-10-31T15:41:52;10.90;;;4.82;;
51824;SDS011;37879;52.986;6.282;2022-10-31T15:44:29;9.73;;;4.80;;
51824;SDS011;37879;52.986;6.282;2022-10-31T15:47:05;8.98;;;5.63;;
51824;SDS011;37879;52.986;6.282;2022-10-31T15:49:46;9.45;;;5.07;;
51824;SDS011;37879;52.986;6.282;2022-10-31T15:54:50;11.23;;;5.00;;
51824;SDS011;37879;52.986;6.282;2022-10-31T15:57:20;9.63;;;4.72;;
51824;SDS011;37879;52.986;6.282;2022-10-31T15:59:48;9.55;;;4.22;;
51824;SDS011;37879;52.986;6.282;2022-10-31T16:02:17;8.18;;;4.20;;
51824;SDS011;37879;52.986;6.282;2022-10-31T16:04:53;8.55;;;4.15;;
51824;SDS011;37879;52.986;6.282;2022-10-31T16:07:24;15.13;;;3.90;;
51824;SDS011;37879;52.986;6.282;2022-10-31T16:10:00;10.43;;;4.80;;
51824;SDS011;37879;52.986;6.282;2022-10-31T16:12:31;7.72;;;4.60;;
51824;SDS011;37879;52.986;6.282;2022-10-31T16:15:03;6.82;;;4.47;;
51824;SDS011;37879;52.986;6.282;2022-10-31T16:17:30;7.50;;;4.15;;
51824;SDS011;37879;52.986;6.282;2022-10-31T16:19:59;8.50;;;5.07;;
51824;SDS011;37879;52.986;6.282;2022-10-31T16:22:28;7.13;;;3.80;;
51824;SDS011;37879;52.986;6.282;2022-10-31T16:24:58;5.82;;;2.75;;
51824;SDS011;37879;52.986;6.282;2022-10-31T16:27:32;7.65;;;4.32;;
51824;SDS011;37879;52.986;6.282;2022-10-31T16:30:00;6.40;;;3.58;;
51824;SDS011;37879;52.986;6.282;2022-10-31T16:37:33;7.60;;;4.15;;
51824;SDS011;37879;52.986;6.282;2022-10-31T16:39:59;6.93;;;4.35;;
51824;SDS011;37879;52.986;6.282;2022-10-31T16:42:24;10.43;;;5.00;;
51824;SDS011;37879;52.986;6.282;2022-10-31T16:44:51;9.60;;;4.47;;
51824;SDS011;37879;52.986;6.282;2022-10-31T16:47:17;9.50;;;4.90;;
51824;SDS011;37879;52.986;6.282;2022-10-31T16:49:44;6.47;;;4.43;;
51824;SDS011;37879;52.986;6.282;2022-10-31T16:52:12;7.40;;;4.38;;
51824;SDS011;37879;52.986;6.282;2022-10-31T16:54:38;8.40;;;5.20;;
51824;SDS011;37879;52.986;6.282;2022-10-31T16:57:04;10.27;;;5.63;;
51824;SDS011;37879;52.986;6.282;2022-10-31T16:59:31;7.80;;;5.18;;
51824;SDS011;37879;52.986;6.282;2022-10-31T17:01:58;9.98;;;6.03;;
51824;SDS011;37879;52.986;6.282;2022-10-31T17:04:24;11.88;;;6.95;;
51824;SDS011;37879;52.986;6.282;2022-10-31T17:06:50;11.45;;;6.30;;
51824;SDS011;37879;52.986;6.282;2022-10-31T17:09:16;12.68;;;7.18;;